createdAt,value
2023-10-20T00:02:15.654Z,15.00
2023-10-20T00:04:42.603Z,15.10
2023-10-20T00:07:09.506Z,15.00
2023-10-20T00:12:17.522Z,15.00
2023-10-20T00:14:44.455Z,15.00
2023-10-20T00:17:11.303Z,14.90
2023-10-20T00:19:38.262Z,15.00
2023-10-20T00:22:05.338Z,14.90
2023-10-20T00:24:32.537Z,14.90
2023-10-20T00:27:00.490Z,14.90
2023-10-20T00:29:27.393Z,14.80
2023-10-20T00:31:54.148Z,14.80
2023-10-20T00:34:21.086Z,14.80
2023-10-20T00:36:48.221Z,14.80
2023-10-20T00:39:15.087Z,14.70
2023-10-20T00:41:42.793Z,14.70
2023-10-20T00:44:10.824Z,14.70
2023-10-20T00:46:38.117Z,14.60
2023-10-20T00:49:05.162Z,14.60
2023-10-20T00:51:31.951Z,14.60
2023-10-20T00:54:00.908Z,14.50
2023-10-20T00:56:28.756Z,14.50
2023-10-20T00:58:56.061Z,14.40
2023-10-20T01:01:23.006Z,14.40
2023-10-20T01:03:50.054Z,14.40
2023-10-20T01:06:17.120Z,14.40
2023-10-20T01:08:44.028Z,14.30
2023-10-20T01:11:10.924Z,14.30
2023-10-20T01:13:38.505Z,14.30
2023-10-20T01:16:05.671Z,14.30
2023-10-20T01:18:33.320Z,14.30
2023-10-20T01:21:00.216Z,14.30
2023-10-20T01:23:27.126Z,14.30
2023-10-20T01:25:54.401Z,14.20
2023-10-20T01:28:21.347Z,14.20
2023-10-20T01:30:48.955Z,14.20
2023-10-20T01:33:15.987Z,14.20
2023-10-20T01:35:42.835Z,14.10
2023-10-20T01:38:09.664Z,14.10
2023-10-20T01:40:36.765Z,14.10
2023-10-20T01:43:03.670Z,14.10
2023-10-20T01:45:30.599Z,14.10
2023-10-20T01:47:57.442Z,14.00
2023-10-20T01:50:24.812Z,14.00
2023-10-20T01:52:51.739Z,14.00
2023-10-20T01:55:19.272Z,14.00
2023-10-20T01:57:46.103Z,14.00
2023-10-20T02:00:15.951Z,14.00
2023-10-20T02:02:43.002Z,13.90
2023-10-20T02:05:09.886Z,13.90
2023-10-20T02:07:36.982Z,13.90
2023-10-20T02:10:04.032Z,13.90
2023-10-20T02:12:31.001Z,13.90
2023-10-20T02:14:57.743Z,13.80
2023-10-20T02:17:24.523Z,13.80
2023-10-20T02:19:51.405Z,13.80
2023-10-20T02:22:18.218Z,13.70
2023-10-20T02:24:45.851Z,13.70
2023-10-20T02:27:12.683Z,13.60
2023-10-20T02:29:39.456Z,13.60
2023-10-20T02:32:06.447Z,13.50
2023-10-20T02:34:33.450Z,13.50
2023-10-20T02:37:00.705Z,13.50
2023-10-20T02:39:28.031Z,13.50
2023-10-20T02:41:55.325Z,13.40
2023-10-20T02:44:23.275Z,13.40
2023-10-20T02:46:50.150Z,13.40
2023-10-20T02:49:17.222Z,13.30
2023-10-20T02:51:44.124Z,13.30
2023-10-20T02:54:11.372Z,13.30
2023-10-20T02:56:38.868Z,13.20
2023-10-20T02:59:05.646Z,13.20
2023-10-20T03:01:32.514Z,13.10
2023-10-20T03:03:59.626Z,13.10
2023-10-20T03:06:26.859Z,13.10
2023-10-20T03:08:53.722Z,13.00
2023-10-20T03:11:20.551Z,13.00
2023-10-20T03:13:47.373Z,13.00
2023-10-20T03:16:14.212Z,12.90
2023-10-20T03:18:41.098Z,12.90
2023-10-20T03:21:08.772Z,12.90
2023-10-20T03:23:35.575Z,12.90
2023-10-20T03:26:02.503Z,12.90
2023-10-20T03:28:29.762Z,12.80
2023-10-20T03:30:57.372Z,12.80
2023-10-20T03:33:24.405Z,12.80
2023-10-20T03:35:59.528Z,12.70
2023-10-20T03:38:26.710Z,12.70
2023-10-20T03:40:53.629Z,12.70
2023-10-20T03:43:21.249Z,12.70
2023-10-20T03:45:53.238Z,12.70
2023-10-20T03:48:24.958Z,12.70
2023-10-20T03:50:53.350Z,12.70
2023-10-20T03:53:23.765Z,12.70
2023-10-20T03:56:08.542Z,12.60
2023-10-20T03:58:37.360Z,12.60
2023-10-20T04:01:04.397Z,12.60
2023-10-20T04:03:34.501Z,12.50
2023-10-20T04:06:04.434Z,12.50
2023-10-20T04:08:31.237Z,12.50
2023-10-20T04:10:58.662Z,12.50
2023-10-20T04:13:25.447Z,12.40
2023-10-20T04:15:54.017Z,12.40
2023-10-20T04:18:21.157Z,12.40
2023-10-20T04:20:51.355Z,12.40
2023-10-20T04:23:18.618Z,12.40
2023-10-20T04:25:54.885Z,12.30
2023-10-20T04:28:29.517Z,12.30
2023-10-20T04:31:14.934Z,12.30
2023-10-20T04:34:00.644Z,12.30
2023-10-20T04:36:46.438Z,12.20
2023-10-20T04:39:32.009Z,12.20
2023-10-20T04:41:58.940Z,12.20
2023-10-20T04:44:25.803Z,12.20
2023-10-20T04:47:01.802Z,12.10
2023-10-20T04:50:01.605Z,12.10
2023-10-20T04:52:47.020Z,12.10
2023-10-20T04:55:13.772Z,12.10
2023-10-20T04:58:11.756Z,12.10
2023-10-20T05:00:38.842Z,12.10
2023-10-20T05:03:05.841Z,12.10
2023-10-20T05:05:45.706Z,12.10
2023-10-20T05:08:12.663Z,12.10
2023-10-20T05:10:42.535Z,12.10
2023-10-20T05:13:10.227Z,12.10
2023-10-20T05:15:42.316Z,12.00
2023-10-20T05:18:16.384Z,12.00
2023-10-20T05:20:43.857Z,12.00
2023-10-20T05:25:47.249Z,12.00
2023-10-20T05:28:14.465Z,12.00
2023-10-20T05:30:45.116Z,12.00
2023-10-20T05:33:12.886Z,12.00
2023-10-20T05:35:42.042Z,12.00
2023-10-20T05:38:09.519Z,11.90
2023-10-20T05:40:37.199Z,12.00
2023-10-20T05:43:06.739Z,11.90
2023-10-20T05:45:41.083Z,11.90
2023-10-20T05:48:09.193Z,11.90
2023-10-20T05:50:37.119Z,11.90
2023-10-20T05:53:04.612Z,11.90
2023-10-20T05:55:32.177Z,11.80
2023-10-20T05:57:58.987Z,11.80
2023-10-20T06:00:26.083Z,11.80
2023-10-20T06:02:53.429Z,11.80
2023-10-20T06:05:21.727Z,11.80
2023-10-20T06:07:51.491Z,11.80
2023-10-20T06:10:23.871Z,11.80
2023-10-20T06:12:51.847Z,11.80
2023-10-20T06:15:18.880Z,11.80
2023-10-20T06:17:45.907Z,11.80
2023-10-20T06:20:13.441Z,11.80
2023-10-20T06:22:40.416Z,11.70
2023-10-20T06:25:13.406Z,11.70
2023-10-20T06:27:41.166Z,11.70
2023-10-20T06:30:08.960Z,11.60
2023-10-20T06:32:44.213Z,11.60
2023-10-20T06:35:12.274Z,11.60
2023-10-20T06:38:03.323Z,11.50
2023-10-20T06:40:30.299Z,11.50
2023-10-20T06:42:57.559Z,11.50
2023-10-20T06:45:25.510Z,11.50
2023-10-20T06:47:52.465Z,11.40
2023-10-20T06:50:19.348Z,11.50
2023-10-20T06:52:46.417Z,11.40
2023-10-20T06:57:44.186Z,11.40
2023-10-20T07:00:18.081Z,11.40
2023-10-20T07:02:45.593Z,11.40
2023-10-20T07:05:12.599Z,11.40
2023-10-20T07:07:39.361Z,11.40
2023-10-20T07:10:09.445Z,11.30
2023-10-20T07:12:36.421Z,11.30
2023-10-20T07:15:03.505Z,11.30
2023-10-20T07:17:30.654Z,11.30
2023-10-20T07:19:57.789Z,11.30
2023-10-20T07:22:27.158Z,11.30
2023-10-20T07:24:57.005Z,11.20
2023-10-20T07:27:42.745Z,11.20
2023-10-20T07:30:11.812Z,11.20
2023-10-20T07:32:38.910Z,11.20
2023-10-20T07:35:06.125Z,11.20
2023-10-20T07:37:34.994Z,11.20
2023-10-20T07:40:02.146Z,11.10
2023-10-20T07:42:29.103Z,11.10
2023-10-20T07:44:56.090Z,11.10
2023-10-20T07:47:23.397Z,11.10
2023-10-20T07:49:50.317Z,11.10
2023-10-20T07:52:18.720Z,11.10
2023-10-20T07:54:45.535Z,11.00
2023-10-20T07:57:23.952Z,11.00
2023-10-20T07:59:51.830Z,11.00
2023-10-20T08:02:19.521Z,11.00
2023-10-20T08:04:47.307Z,11.00
2023-10-20T08:07:14.849Z,11.00
2023-10-20T08:09:41.841Z,11.10
2023-10-20T08:12:08.754Z,11.00
2023-10-20T09:10:14.733Z,10.80
2023-10-20T09:12:41.620Z,10.80
2023-10-20T09:15:13.949Z,10.80
2023-10-20T09:17:40.956Z,10.70
2023-10-20T09:20:08.659Z,10.70
2023-10-20T09:22:35.741Z,10.70
2023-10-20T09:25:03.582Z,10.70
2023-10-20T09:27:30.802Z,10.70
2023-10-20T09:29:58.452Z,10.60
2023-10-20T09:32:25.406Z,10.60
2023-10-20T09:34:54.188Z,10.60
2023-10-20T09:37:24.898Z,10.60
2023-10-20T09:39:55.740Z,10.60
2023-10-20T09:42:25.382Z,10.60
2023-10-20T09:45:03.680Z,10.60
2023-10-20T09:47:31.593Z,10.60
2023-10-20T09:49:58.958Z,10.60
2023-10-20T09:52:26.196Z,10.50
2023-10-20T09:54:54.297Z,10.50
2023-10-20T09:57:21.917Z,10.50
2023-10-20T09:59:53.073Z,10.40
2023-10-20T10:02:30.029Z,10.30
2023-10-20T10:04:58.264Z,10.30
2023-10-20T10:07:29.404Z,10.20
2023-10-20T10:09:56.976Z,10.20
2023-10-20T10:12:26.126Z,10.20
2023-10-20T10:15:02.918Z,10.10
2023-10-20T10:17:30.204Z,10.20
2023-10-20T10:19:57.644Z,10.10
2023-10-20T10:22:28.861Z,10.10
2023-10-20T10:25:02.223Z,10.10
2023-10-20T10:27:29.840Z,10.10
2023-10-20T10:30:07.157Z,10.10
2023-10-20T10:32:38.041Z,10.10
2023-10-20T10:35:05.802Z,10.20
2023-10-20T10:37:35.844Z,10.10
2023-10-20T10:40:13.810Z,10.20
2023-10-20T10:42:55.063Z,10.10
2023-10-20T10:45:32.508Z,10.10
2023-10-20T10:48:05.113Z,10.20
2023-10-20T10:50:32.312Z,10.20
2023-10-20T10:53:02.285Z,10.20
2023-10-20T10:55:29.412Z,10.20
2023-10-20T11:00:26.016Z,10.20
2023-10-20T11:02:53.488Z,10.20
2023-10-20T11:05:20.920Z,10.20
2023-10-20T11:08:06.473Z,10.20
2023-10-20T11:10:36.399Z,10.20
2023-10-20T11:13:07.796Z,10.20
2023-10-20T11:15:35.288Z,10.20
2023-10-20T11:18:03.187Z,10.20
2023-10-20T11:20:33.879Z,10.20
2023-10-20T11:23:02.249Z,10.30
2023-10-20T11:25:30.293Z,10.30
2023-10-20T11:27:58.409Z,10.30
2023-10-20T11:30:40.060Z,10.30
2023-10-20T11:33:07.505Z,10.20
2023-10-20T11:35:34.586Z,10.20
2023-10-20T11:38:02.362Z,10.20
2023-10-20T11:40:29.847Z,10.20
2023-10-20T11:42:57.385Z,10.30
2023-10-20T11:45:24.708Z,10.30
2023-10-20T11:47:52.609Z,10.30
2023-10-20T11:50:24.934Z,10.30
2023-10-20T11:52:52.347Z,10.30
2023-10-20T11:55:19.656Z,10.30
2023-10-20T11:57:46.543Z,10.30
2023-10-20T12:00:15.269Z,10.30
2023-10-20T12:02:42.937Z,10.30
2023-10-20T12:05:10.798Z,10.30
2023-10-20T12:07:38.079Z,10.30
2023-10-20T12:10:07.906Z,10.30
2023-10-20T12:12:34.990Z,10.30
2023-10-20T12:15:02.608Z,10.30
2023-10-20T12:17:31.483Z,10.30
2023-10-20T12:19:58.597Z,10.30
2023-10-20T12:22:27.479Z,10.30
2023-10-20T12:24:54.314Z,10.40
2023-10-20T12:27:22.301Z,10.40
2023-10-20T12:29:49.499Z,10.40
2023-10-20T12:32:17.334Z,10.40
2023-10-20T12:34:44.381Z,10.40
2023-10-20T12:37:12.147Z,10.50
2023-10-20T12:39:41.284Z,10.40
2023-10-20T12:42:09.986Z,10.50
2023-10-20T12:44:37.493Z,10.50
2023-10-20T12:47:04.900Z,10.40
2023-10-20T12:49:34.929Z,10.40
2023-10-20T12:52:03.822Z,10.50
2023-10-20T12:54:31.252Z,10.50
2023-10-20T12:57:00.235Z,10.50
2023-10-20T12:59:27.299Z,10.40
2023-10-20T13:01:54.699Z,10.40
2023-10-20T13:04:21.826Z,10.40
2023-10-20T13:06:59.112Z,10.40
2023-10-20T13:09:27.243Z,10.30
2023-10-20T13:11:54.453Z,10.30
2023-10-20T13:14:21.406Z,10.30
2023-10-20T13:16:48.451Z,10.20
2023-10-20T13:19:15.732Z,10.20
2023-10-20T13:21:42.952Z,10.10
2023-10-20T13:24:10.377Z,10.10
2023-10-20T13:26:37.611Z,10.10
2023-10-20T13:29:04.882Z,10.10
2023-10-20T13:31:32.975Z,10.10
2023-10-20T13:34:00.886Z,10.10
2023-10-20T13:36:27.803Z,10.10
2023-10-20T13:38:56.032Z,10.10
2023-10-20T13:41:23.588Z,10.10
2023-10-20T13:43:50.526Z,10.10
2023-10-20T13:46:17.730Z,10.10
2023-10-20T13:48:45.647Z,10.00
2023-10-20T13:51:12.685Z,10.00
2023-10-20T13:53:39.513Z,9.90
2023-10-20T13:56:06.608Z,9.90
2023-10-20T13:58:33.326Z,9.90
2023-10-20T14:01:00.078Z,9.90
2023-10-20T14:05:56.504Z,9.90
2023-10-20T14:08:42.455Z,9.90
2023-10-20T14:11:12.182Z,9.90
2023-10-20T14:13:40.784Z,9.90
2023-10-20T14:16:07.635Z,9.90
2023-10-20T14:18:34.920Z,9.90
2023-10-20T14:21:01.881Z,9.90
2023-10-20T14:23:29.690Z,9.90
2023-10-20T14:26:03.745Z,10.00
2023-10-20T14:39:21.937Z,10.10
2023-10-20T14:41:48.687Z,10.20
2023-10-20T14:44:15.449Z,10.20
2023-10-20T14:46:45.004Z,10.10
2023-10-20T14:49:12.234Z,10.10
2023-10-20T14:51:39.164Z,10.20
2023-10-20T14:54:06.117Z,10.20
2023-10-20T14:56:37.970Z,10.20
2023-10-20T14:59:05.143Z,10.20
2023-10-20T15:01:32.066Z,10.20
2023-10-20T15:04:07.618Z,10.20
2023-10-20T15:06:44.987Z,10.20
2023-10-20T15:09:12.685Z,10.20
2023-10-20T15:11:42.902Z,10.20
2023-10-20T15:14:22.387Z,10.20
2023-10-20T15:16:49.363Z,10.20
2023-10-20T15:19:18.489Z,10.20
2023-10-20T15:21:48.580Z,10.30
2023-10-20T15:24:18.465Z,10.30
2023-10-20T15:26:47.055Z,10.30
2023-10-20T15:29:16.984Z,10.30
2023-10-20T15:31:44.435Z,10.30
2023-10-20T15:34:11.480Z,10.40
2023-10-20T15:36:49.056Z,10.40
2023-10-20T15:39:16.826Z,10.40
2023-10-20T15:41:43.693Z,10.40
2023-10-20T15:44:10.891Z,10.40
2023-10-20T15:46:37.681Z,10.40
2023-10-20T15:49:10.197Z,10.40
2023-10-20T15:51:37.058Z,10.40
2023-10-20T15:54:03.948Z,10.40
2023-10-20T15:56:33.930Z,10.40
2023-10-20T15:59:02.446Z,10.50
2023-10-20T16:01:37.123Z,10.50
2023-10-20T16:04:04.280Z,10.50
2023-10-20T16:06:31.392Z,10.60
2023-10-20T16:09:00.129Z,10.60
2023-10-20T16:11:27.646Z,10.60
2023-10-20T16:13:54.902Z,10.60
2023-10-20T16:16:27.458Z,10.60
2023-10-20T16:18:54.508Z,10.60
2023-10-20T16:21:21.360Z,10.60
2023-10-20T16:23:49.816Z,10.60
2023-10-20T16:26:16.755Z,10.60
2023-10-20T16:28:52.059Z,10.70
2023-10-20T16:31:19.122Z,10.60
2023-10-20T16:33:46.062Z,10.60
2023-10-20T16:36:13.041Z,10.60
2023-10-20T16:38:40.895Z,10.60
2023-10-20T16:41:08.514Z,10.70
2023-10-20T17:11:08.524Z,10.90
2023-10-20T17:13:35.333Z,11.00
2023-10-20T17:16:05.612Z,11.10
2023-10-20T17:18:33.432Z,11.00
2023-10-20T17:21:09.628Z,11.10
2023-10-20T17:23:36.778Z,11.20
2023-10-20T17:47:59.666Z,11.50
2023-10-20T17:58:32.998Z,11.80
2023-10-20T18:09:16.544Z,12.00
2023-10-20T18:19:57.889Z,12.30
2023-10-20T18:22:24.902Z,12.40
2023-10-20T18:27:27.488Z,12.50
2023-10-20T18:32:39.644Z,12.60
2023-10-20T18:37:48.888Z,12.70
2023-10-20T18:40:15.907Z,12.80
2023-10-20T18:42:42.708Z,12.80
2023-10-20T18:45:09.608Z,12.90
2023-10-20T18:47:36.692Z,12.90
2023-10-20T18:50:03.961Z,13.00
2023-10-20T18:52:31.715Z,13.00
2023-10-20T18:54:58.877Z,13.00
2023-10-20T18:57:26.871Z,13.10
2023-10-20T18:59:53.709Z,13.10
2023-10-20T19:02:20.896Z,13.10
2023-10-20T19:04:47.856Z,13.20
2023-10-20T19:07:14.665Z,13.20
2023-10-20T19:09:43.539Z,13.20
2023-10-20T19:12:12.020Z,13.20
2023-10-20T19:14:38.910Z,13.20
2023-10-20T19:17:05.674Z,13.20
2023-10-20T19:19:32.681Z,13.20
2023-10-20T19:21:59.462Z,13.20
2023-10-20T19:24:26.398Z,13.20
2023-10-20T19:26:53.386Z,13.20
2023-10-20T19:29:20.756Z,13.20
2023-10-20T19:31:47.608Z,13.20
2023-10-20T19:34:14.353Z,13.20
2023-10-20T19:36:41.076Z,13.10
2023-10-20T19:39:10.983Z,13.20
2023-10-20T19:41:38.414Z,13.20
2023-10-20T19:44:05.349Z,13.20
2023-10-20T19:46:32.205Z,13.20
2023-10-20T19:48:59.031Z,13.20
2023-10-20T19:51:26.409Z,13.20
2023-10-20T19:53:53.306Z,13.10
2023-10-20T19:56:20.179Z,13.10
2023-10-20T19:58:47.027Z,13.10
2023-10-20T20:01:13.968Z,13.10
2023-10-20T20:03:40.892Z,13.10
2023-10-20T20:06:13.052Z,13.10
2023-10-20T20:08:40.619Z,13.10
2023-10-20T20:11:07.690Z,13.10
2023-10-20T20:13:34.926Z,13.00
2023-10-20T20:16:05.743Z,13.10
2023-10-20T20:18:33.046Z,13.10
2023-10-20T20:20:59.907Z,13.10
2023-10-20T20:23:26.796Z,13.10
2023-10-20T20:25:53.655Z,13.10
2023-10-20T20:28:20.636Z,13.10
2023-10-20T20:30:47.571Z,13.00
2023-10-20T20:33:14.442Z,12.90
2023-10-20T20:35:41.344Z,12.90
2023-10-20T20:38:08.394Z,12.90
2023-10-20T20:40:36.731Z,12.90
2023-10-20T20:43:05.527Z,12.80
2023-10-20T20:45:35.518Z,12.80
2023-10-20T20:48:05.754Z,12.90
2023-10-20T20:50:33.726Z,12.80
2023-10-20T20:53:03.204Z,12.90
2023-10-20T20:55:35.209Z,12.80
2023-10-20T20:58:02.222Z,12.80
2023-10-20T21:00:29.280Z,12.80
2023-10-20T21:02:56.123Z,12.80
2023-10-20T21:05:23.025Z,12.80
2023-10-20T21:07:49.897Z,12.80
2023-10-20T21:10:16.679Z,12.80
2023-10-20T21:12:43.442Z,12.70
2023-10-20T21:15:10.355Z,12.70
2023-10-20T21:17:37.378Z,12.70
2023-10-20T21:20:04.888Z,12.70
2023-10-20T21:22:31.681Z,12.70
2023-10-20T21:24:58.695Z,12.60
2023-10-20T21:27:25.544Z,12.60
2023-10-20T21:29:52.298Z,12.60
2023-10-20T21:32:19.101Z,12.60
2023-10-20T21:34:46.439Z,12.60
2023-10-20T21:37:13.471Z,12.60
2023-10-20T21:39:40.275Z,12.50
2023-10-20T21:42:06.975Z,12.50
2023-10-20T21:44:33.860Z,12.60
2023-10-20T21:47:01.042Z,12.60
2023-10-20T21:49:28.906Z,12.60
2023-10-20T21:51:55.973Z,12.60
2023-10-20T21:54:23.035Z,12.50
2023-10-20T21:56:49.875Z,12.50
2023-10-20T21:59:16.701Z,12.50
2023-10-20T22:01:47.232Z,12.50
2023-10-20T22:04:18.776Z,12.40
2023-10-20T22:06:45.632Z,12.40
2023-10-20T22:09:13.799Z,12.40
2023-10-20T22:11:44.023Z,12.40
2023-10-20T22:14:11.747Z,12.40
2023-10-20T22:16:38.695Z,12.40
2023-10-20T22:19:05.557Z,12.50
2023-10-20T22:21:32.398Z,12.50
2023-10-20T22:23:59.290Z,12.50
2023-10-20T22:26:26.254Z,12.40
2023-10-20T22:28:53.170Z,12.40
2023-10-20T22:31:20.105Z,12.40
2023-10-20T22:33:47.057Z,12.40
2023-10-20T22:36:14.088Z,12.30
2023-10-20T22:38:41.115Z,12.30
2023-10-20T22:41:08.410Z,12.30
2023-10-20T22:43:35.282Z,12.30
2023-10-20T22:46:02.901Z,12.30
2023-10-20T22:48:30.095Z,12.30
2023-10-20T22:50:57.185Z,12.30
2023-10-20T22:53:24.095Z,12.30
2023-10-20T22:55:50.922Z,12.30
2023-10-20T22:58:17.743Z,12.30
2023-10-20T23:00:44.603Z,12.20
2023-10-20T23:03:11.756Z,12.20
2023-10-20T23:05:38.624Z,12.20
2023-10-20T23:08:07.490Z,12.20
2023-10-20T23:10:34.996Z,12.20
2023-10-20T23:13:01.759Z,12.20
2023-10-20T23:15:29.942Z,12.20
2023-10-20T23:17:56.857Z,12.20
2023-10-20T23:20:23.623Z,12.20
2023-10-20T23:22:50.560Z,12.20
2023-10-20T23:25:17.487Z,12.20
2023-10-20T23:27:44.415Z,12.20
2023-10-20T23:30:11.883Z,12.20
2023-10-20T23:32:38.875Z,12.20
2023-10-20T23:35:08.300Z,12.20
2023-10-20T23:37:35.742Z,12.20
2023-10-20T23:40:02.679Z,12.20
2023-10-20T23:42:29.409Z,12.20
2023-10-20T23:44:56.164Z,12.10
2023-10-20T23:47:23.001Z,12.10
2023-10-20T23:49:52.005Z,12.10
2023-10-20T23:52:19.201Z,12.10
2023-10-20T23:54:45.990Z,12.10
2023-10-20T23:57:12.854Z,12.10
2023-10-20T23:59:39.650Z,12.10
